»·PEaware :: UAL3064 KLAX-PHNL

UAL3064 :: KLAX-PHNL

FLIGHT INFORMATION

Flight Status: Arrived
Operator:
United Airlines
More flights by this operator :: More flights under this callsign
Pilot: Kyle M. (9350)
Aircraft: Boeing 747-8
(B748)
More flights by this aircraft type
Origin: KLAX Los Angeles Intl
United States
Destination: PHNL Honolulu Intl
United States
More flights between these airports :: More routes between these airports
Route: SUMMR2 DINTY DUETS R576 DENNS MAGGI3
File this flight plan on PilotEdge
Remarks: RMK / SIMBRIEF
Altitude:
(Current/Filed)
38,000ft
Speed:
(Current/Filed)
486kts
Departed: 13-Sep-20 09:37 AM
Arrived: 13-Sep-20 02:35 PM
Distance/Time
Traveled:
2217nm/4:58
Distance/Time
To Go:
Arrived

Flight Plot

Page will automatically refresh every two minutes.

Flight plan parsing failed; only flown route is shown


Map Options




Map Legend


Flown Route
Filed Route
Departure Airport
Arrival Airport
Navaid (VOR, NDB)
Fix

Horizontal Profiles

Position Reports

Time Latitude Longitude Heading Altitude Ground
Speed
13-Sep-20 08:56 33.940189 -118.410936 83 132ft 0kts
13-Sep-20 08:57 33.940189 -118.410936 83 132ft 0kts
13-Sep-20 08:58 33.940189 -118.410936 83 132ft 0kts
13-Sep-20 08:59 33.940189 -118.410936 83 132ft 0kts
13-Sep-20 09:00 33.940189 -118.410936 83 132ft 0kts
13-Sep-20 09:01 33.940189 -118.410936 83 132ft 0kts
13-Sep-20 09:02 33.940189 -118.410936 83 132ft 0kts
13-Sep-20 09:03 33.940189 -118.410936 83 132ft 0kts
13-Sep-20 09:04 33.940189 -118.410936 83 132ft 0kts
13-Sep-20 09:05 33.940189 -118.410936 83 132ft 0kts
13-Sep-20 09:06 33.940189 -118.410936 83 132ft 0kts
13-Sep-20 09:07 33.940189 -118.410936 83 132ft 0kts
13-Sep-20 09:08 33.940189 -118.410936 83 132ft 0kts
13-Sep-20 09:09 33.940189 -118.410936 83 132ft 0kts
13-Sep-20 09:10 33.940189 -118.410936 83 132ft 0kts
13-Sep-20 09:11 33.940189 -118.410936 83 132ft 0kts
13-Sep-20 09:12 33.940189 -118.410936 83 132ft 0kts
13-Sep-20 09:13 33.940189 -118.410936 83 132ft 0kts
13-Sep-20 09:14 33.940189 -118.410936 83 132ft 0kts
13-Sep-20 09:15 33.940189 -118.410936 83 132ft 0kts
13-Sep-20 09:16 33.940189 -118.410936 83 132ft 0kts
13-Sep-20 09:17 33.940189 -118.410936 83 132ft 0kts
13-Sep-20 09:18 33.940189 -118.410936 83 132ft 0kts
13-Sep-20 09:19 33.940189 -118.410936 83 132ft 0kts
13-Sep-20 09:20 33.940189 -118.410936 83 132ft 0kts
13-Sep-20 09:21 33.940189 -118.410936 83 132ft 0kts
13-Sep-20 09:22 33.940189 -118.410936 83 132ft 0kts
13-Sep-20 09:23 33.940189 -118.410936 83 132ft 0kts
13-Sep-20 09:24 33.940172 -118.411105 83 132ft 2kts
13-Sep-20 09:25 33.940113 -118.411707 83 132ft 0kts
13-Sep-20 09:26 33.940113 -118.411707 83 132ft 0kts
13-Sep-20 09:27 33.940113 -118.411707 83 132ft 0kts
13-Sep-20 09:28 33.940113 -118.411707 83 132ft 0kts
13-Sep-20 09:29 33.940113 -118.411707 83 132ft 0kts
13-Sep-20 09:30 33.938668 -118.411640 172 132ft 12kts
13-Sep-20 09:31 33.938052 -118.407280 82 132ft 26kts
13-Sep-20 09:32 33.939169 -118.396237 82 132ft 32kts
13-Sep-20 09:33 33.940169 -118.386451 82 132ft 26kts
13-Sep-20 09:34 33.940777 -118.380532 86 132ft 1kts
13-Sep-20 09:35 33.939753 -118.381045 264 132ft 16kts
13-Sep-20 09:36 33.935425 -118.419519 259 926ft 180kts
13-Sep-20 09:37 33.923203 -118.481557 252 2417ft 206kts
13-Sep-20 09:38 33.921639 -118.549643 273 4525ft 220kts
13-Sep-20 09:39 33.917245 -118.634885 264 6248ft 265kts
13-Sep-20 09:40 33.917991 -118.723042 268 9264ft 268kts
13-Sep-20 09:41 33.916079 -118.819304 268 11690ft 322kts
13-Sep-20 09:42 33.920573 -118.935737 270 14220ft 369kts
13-Sep-20 09:43 33.942145 -119.060156 295 17223ft 396kts
13-Sep-20 09:44 34.007324 -119.169858 310 20234ft 412kts
13-Sep-20 09:45 34.095690 -119.261288 329 22854ft 430kts
13-Sep-20 09:46 34.193534 -119.346660 323 25452ft 440kts
13-Sep-20 09:47 34.294592 -119.431145 321 28063ft 443kts
13-Sep-20 09:48 34.393199 -119.518928 309 30658ft 437kts
13-Sep-20 09:49 34.414962 -119.652728 258 33580ft 409kts
13-Sep-20 09:50 34.390842 -119.785097 266 35532ft 411kts
13-Sep-20 09:51 34.384008 -119.926844 259 36702ft 436kts
13-Sep-20 09:52 34.374168 -120.077146 264 37774ft 463kts
13-Sep-20 09:53 34.360430 -120.237098 267 37991ft 493kts
13-Sep-20 09:54 34.346952 -120.404176 264 37989ft 499kts
13-Sep-20 09:55 34.310120 -120.563279 240 38011ft 498kts
13-Sep-20 09:56 34.247041 -120.711861 248 38007ft 497kts
13-Sep-20 09:57 34.185066 -120.860256 245 38014ft 498kts
13-Sep-20 09:58 34.126584 -121.011536 241 38019ft 497kts
13-Sep-20 09:59 34.067848 -121.162540 242 38025ft 498kts
13-Sep-20 10:00 34.006833 -121.311514 245 38040ft 498kts
13-Sep-20 10:01 33.945214 -121.460446 245 38039ft 498kts
13-Sep-20 10:02 33.884595 -121.610020 242 38042ft 498kts
13-Sep-20 10:03 33.824370 -121.759911 242 38048ft 497kts
13-Sep-20 10:04 33.763764 -121.909085 243 38050ft 497kts
13-Sep-20 10:05 33.702140 -122.057419 244 38055ft 498kts
13-Sep-20 10:06 33.639879 -122.205524 244 38058ft 497kts
13-Sep-20 10:07 33.578571 -122.353811 242 38061ft 498kts
13-Sep-20 10:08 33.517456 -122.502931 242 38065ft 498kts
13-Sep-20 10:09 33.464278 -122.654702 259 38075ft 498kts
13-Sep-20 10:10 33.434645 -122.815921 251 38068ft 498kts
13-Sep-20 10:11 33.403597 -122.977167 254 38073ft 498kts
13-Sep-20 10:12 33.368522 -123.137079 258 38075ft 498kts
13-Sep-20 10:13 33.333362 -123.296464 256 38079ft 498kts
13-Sep-20 10:14 33.300023 -123.457355 253 38079ft 498kts
13-Sep-20 10:15 33.267101 -123.617383 253 38085ft 498kts
13-Sep-20 10:16 33.232766 -123.777189 256 38085ft 498kts
13-Sep-20 10:18 33.197298 -123.937169 256 38088ft 498kts
13-Sep-20 10:19 33.161886 -124.096480 255 38090ft 498kts
13-Sep-20 10:20 33.127650 -124.255743 253 38093ft 497kts
13-Sep-20 10:21 33.093182 -124.415865 254 38095ft 498kts
13-Sep-20 10:22 33.057493 -124.574870 256 38096ft 497kts
13-Sep-20 10:23 33.020804 -124.734048 256 38098ft 498kts
13-Sep-20 10:24 32.984994 -124.892514 254 38099ft 497kts
13-Sep-20 10:25 32.949714 -125.052072 253 38103ft 498kts
13-Sep-20 10:26 32.913916 -125.210620 254 38104ft 498kts
13-Sep-20 10:27 32.876746 -125.368770 255 38106ft 498kts
13-Sep-20 10:28 32.839386 -125.527374 254 38107ft 498kts
13-Sep-20 10:29 32.803008 -125.686134 252 38110ft 498kts
13-Sep-20 10:30 32.766692 -125.844718 253 38110ft 498kts
13-Sep-20 10:31 32.729126 -126.002606 255 38111ft 498kts
13-Sep-20 10:32 32.690785 -126.160296 255 38112ft 498kts
13-Sep-20 10:33 32.653236 -126.318022 253 38113ft 498kts
13-Sep-20 10:34 32.616070 -126.476676 252 38113ft 498kts
13-Sep-20 10:34 32.584106 -126.607928 255 38113ft 498kts
13-Sep-20 10:36 32.539109 -126.791398 255 38117ft 499kts
13-Sep-20 10:37 32.500273 -126.948666 253 38120ft 498kts
13-Sep-20 10:37 32.469138 -127.080218 252 38123ft 499kts
13-Sep-20 10:39 32.423853 -127.263860 253 38124ft 498kts
13-Sep-20 10:39 32.390318 -127.394355 254 38125ft 499kts
13-Sep-20 10:40 32.350858 -127.551443 252 38124ft 498kts
13-Sep-20 10:41 32.312179 -127.708470 251 38125ft 499kts
13-Sep-20 10:42 32.272939 -127.865268 253 38123ft 499kts
13-Sep-20 10:43 32.232461 -128.021665 254 38123ft 499kts
13-Sep-20 10:44 32.191849 -128.177907 253 38120ft 499kts
13-Sep-20 10:45 32.152063 -128.334443 251 38119ft 498kts
13-Sep-20 10:46 32.112282 -128.491142 252 38117ft 499kts
13-Sep-20 10:47 32.071463 -128.646989 253 38116ft 498kts
13-Sep-20 10:48 32.029969 -128.802256 253 38115ft 499kts
13-Sep-20 10:49 31.988955 -128.958150 251 38115ft 498kts
13-Sep-20 10:50 31.948517 -129.114172 251 38115ft 499kts
13-Sep-20 10:51 31.907378 -129.269654 252 38114ft 498kts
13-Sep-20 10:52 31.865077 -129.424898 253 38115ft 499kts
13-Sep-20 10:53 31.822802 -129.580338 252 38115ft 499kts
13-Sep-20 10:54 31.781486 -129.735420 250 38115ft 499kts
13-Sep-20 10:55 31.739842 -129.890920 251 38111ft 499kts
13-Sep-20 10:56 31.697207 -130.045272 253 38101ft 499kts
13-Sep-20 10:57 31.653935 -130.199987 252 38100ft 499kts
13-Sep-20 10:58 31.611359 -130.354780 251 38101ft 498kts
13-Sep-20 10:59 31.569282 -130.509234 250 38103ft 499kts
13-Sep-20 11:00 31.526216 -130.663607 252 38118ft 498kts
13-Sep-20 11:01 31.482122 -130.817882 252 38113ft 500kts
13-Sep-20 11:02 31.438406 -130.971815 251 38113ft 498kts
13-Sep-20 11:03 31.395503 -131.125604 250 38114ft 499kts
13-Sep-20 11:04 31.352123 -131.279528 251 38114ft 498kts
13-Sep-20 11:05 31.307508 -131.433296 252 38114ft 499kts
13-Sep-20 11:06 31.262627 -131.586917 251 38103ft 498kts
13-Sep-20 11:07 31.218648 -131.740080 250 38110ft 499kts
13-Sep-20 11:08 31.174749 -131.893547 250 38112ft 498kts
13-Sep-20 11:09 31.129953 -132.046323 251 38114ft 499kts
13-Sep-20 11:10 31.084471 -132.198391 251 38112ft 499kts
13-Sep-20 11:11 31.039353 -132.350854 250 38113ft 498kts
13-Sep-20 11:12 30.994604 -132.504048 249 38114ft 499kts
13-Sep-20 11:13 30.949374 -132.656594 250 38113ft 498kts
13-Sep-20 11:14 30.903153 -132.808569 251 38113ft 499kts
13-Sep-20 11:15 30.857018 -132.960101 250 38112ft 498kts
13-Sep-20 11:16 30.811413 -133.112399 249 38113ft 499kts
13-Sep-20 11:17 30.765730 -133.264588 249 38111ft 499kts
13-Sep-20 11:18 30.719114 -133.416077 251 38110ft 498kts
13-Sep-20 11:19 30.672102 -133.566828 250 38108ft 499kts
13-Sep-20 11:20 30.625479 -133.718266 249 38108ft 498kts
13-Sep-20 11:21 30.579185 -133.869892 249 38106ft 499kts
13-Sep-20 11:22 30.532277 -134.020795 250 38105ft 498kts
13-Sep-20 11:23 30.484506 -134.171280 250 38104ft 499kts
13-Sep-20 11:24 30.437031 -134.321381 249 38103ft 498kts
13-Sep-20 11:25 30.389977 -134.472170 248 38102ft 498kts
13-Sep-20 11:26 30.342689 -134.622590 249 38101ft 497kts
13-Sep-20 11:27 30.294394 -134.772711 250 38100ft 498kts
13-Sep-20 11:28 30.245988 -134.922108 249 38099ft 497kts
13-Sep-20 11:29 30.198109 -135.071843 248 38094ft 498kts
13-Sep-20 11:30 30.150385 -135.221477 248 38097ft 497kts
13-Sep-20 11:31 30.101712 -135.371092 249 38096ft 498kts
13-Sep-20 11:32 30.052458 -135.520214 249 38095ft 497kts
13-Sep-20 11:33 30.003637 -135.669063 248 38095ft 498kts
13-Sep-20 11:34 29.955269 -135.817964 248 38094ft 497kts
13-Sep-20 11:35 29.906227 -135.967116 249 38092ft 497kts
13-Sep-20 11:36 29.856511 -136.115345 249 38091ft 497kts
13-Sep-20 11:37 29.806764 -136.263481 248 38088ft 497kts
13-Sep-20 11:38 29.757455 -136.412040 247 38086ft 497kts
13-Sep-20 11:39 29.708201 -136.559965 248 38086ft 497kts
13-Sep-20 11:40 29.658026 -136.707764 249 38084ft 497kts
13-Sep-20 11:41 29.607398 -136.855524 249 38083ft 497kts
13-Sep-20 11:42 29.557218 -137.003273 247 38080ft 497kts
13-Sep-20 11:43 29.507469 -137.150371 247 38081ft 497kts
13-Sep-20 11:44 29.456840 -137.297853 248 38079ft 497kts
13-Sep-20 11:45 29.405623 -137.444838 248 38079ft 497kts
13-Sep-20 11:46 29.354640 -137.591601 248 38077ft 497kts
13-Sep-20 11:47 29.303941 -137.738800 247 38076ft 496kts
13-Sep-20 11:48 29.252948 -137.885622 248 38078ft 497kts
13-Sep-20 11:49 29.201360 -138.031632 248 38076ft 496kts
13-Sep-20 11:50 29.149564 -138.177760 248 38074ft 497kts
13-Sep-20 11:51 29.097935 -138.324588 247 38073ft 496kts
13-Sep-20 11:52 29.046515 -138.470633 247 38073ft 497kts
13-Sep-20 11:53 28.994502 -138.616146 248 38072ft 496kts
13-Sep-20 11:54 28.941949 -138.761793 248 38071ft 497kts
13-Sep-20 11:55 28.889691 -138.907380 247 38068ft 496kts
13-Sep-20 11:56 28.837623 -139.052938 246 38065ft 496kts
13-Sep-20 11:57 28.785180 -139.197958 247 38064ft 496kts
13-Sep-20 11:58 28.732086 -139.342907 247 38065ft 496kts
13-Sep-20 11:59 28.678964 -139.487870 247 38063ft 496kts
13-Sep-20 12:00 28.626089 -139.632728 246 38073ft 496kts
13-Sep-20 12:01 28.572900 -139.777358 247 38066ft 496kts
13-Sep-20 12:02 28.519267 -139.921332 247 38066ft 496kts
13-Sep-20 12:03 28.465335 -140.065764 247 38065ft 496kts
13-Sep-20 12:04 28.411779 -140.209869 246 38066ft 496kts
13-Sep-20 12:05 28.358197 -140.353546 246 38064ft 496kts
13-Sep-20 12:06 28.304039 -140.497082 247 38065ft 496kts
13-Sep-20 12:07 28.249440 -140.640998 246 38065ft 496kts
13-Sep-20 12:08 28.195149 -140.784489 246 38064ft 495kts
13-Sep-20 12:09 28.140868 -140.927886 246 38064ft 496kts
13-Sep-20 12:10 28.086206 -141.070939 246 38064ft 495kts
13-Sep-20 12:11 28.031304 -141.213501 246 38064ft 496kts
13-Sep-20 12:12 27.976349 -141.356344 246 38064ft 495kts
13-Sep-20 12:13 27.921449 -141.499126 246 38064ft 496kts
13-Sep-20 12:15 27.866128 -141.641945 246 38064ft 495kts
13-Sep-20 12:16 27.810547 -141.784286 246 38064ft 496kts
13-Sep-20 12:17 27.755067 -141.926263 245 38064ft 495kts
13-Sep-20 12:18 27.699482 -142.068632 245 38066ft 496kts
13-Sep-20 12:19 27.643699 -142.210621 246 38065ft 495kts
13-Sep-20 12:20 27.587642 -142.352181 246 38059ft 497kts
13-Sep-20 12:21 27.531429 -142.493986 245 38063ft 495kts
13-Sep-20 12:22 27.475513 -142.635075 245 38065ft 496kts
13-Sep-20 12:23 27.419048 -142.776695 245 38067ft 495kts
13-Sep-20 12:24 27.362512 -142.917547 245 38066ft 496kts
13-Sep-20 12:25 27.305752 -143.058897 245 38065ft 495kts
13-Sep-20 12:26 27.249024 -143.199846 245 38065ft 496kts
13-Sep-20 12:27 27.192046 -143.340439 245 38064ft 495kts
13-Sep-20 12:28 27.135007 -143.480904 245 38066ft 496kts
13-Sep-20 12:29 27.077703 -143.621807 245 38066ft 495kts
13-Sep-20 12:30 27.020366 -143.761877 245 38067ft 496kts
13-Sep-20 12:31 26.962894 -143.901919 245 38067ft 495kts
13-Sep-20 12:32 26.905222 -144.042226 245 38067ft 496kts
13-Sep-20 12:32 26.857194 -144.158334 245 38067ft 495kts
13-Sep-20 12:34 26.789603 -144.321541 244 38069ft 496kts
13-Sep-20 12:35 26.731625 -144.461058 244 38069ft 495kts
13-Sep-20 12:35 26.683123 -144.577188 244 38070ft 495kts
13-Sep-20 12:36 26.624981 -144.716305 244 38070ft 496kts
13-Sep-20 12:38 26.556768 -144.878672 244 38069ft 495kts
13-Sep-20 12:38 26.507893 -144.994647 244 38068ft 496kts
13-Sep-20 12:39 26.449357 -145.133212 244 38068ft 495kts
13-Sep-20 12:40 26.390476 -145.271948 244 38068ft 496kts
13-Sep-20 12:41 26.331596 -145.410470 244 38069ft 495kts
13-Sep-20 12:42 26.272479 -145.548999 244 38070ft 496kts
13-Sep-20 12:43 26.213198 -145.687315 244 38070ft 495kts
13-Sep-20 12:44 26.153824 -145.825603 244 38070ft 496kts
13-Sep-20 12:45 26.094492 -145.963282 244 38071ft 495kts
13-Sep-20 12:46 26.034795 -146.101270 244 38072ft 496kts
13-Sep-20 12:47 25.975140 -146.238981 244 38072ft 495kts
13-Sep-20 12:48 25.915377 -146.376564 244 38071ft 496kts
13-Sep-20 12:49 25.855337 -146.514365 244 38071ft 494kts
13-Sep-20 12:50 25.795312 -146.651652 243 38071ft 496kts
13-Sep-20 12:51 25.735148 -146.788891 243 38071ft 495kts
13-Sep-20 12:52 25.674964 -146.925672 243 38072ft 496kts
13-Sep-20 12:53 25.614407 -147.062921 243 38071ft 495kts
13-Sep-20 12:54 25.554071 -147.199225 243 38071ft 496kts
13-Sep-20 12:55 25.493275 -147.336146 243 38077ft 495kts
13-Sep-20 12:56 25.432421 -147.472772 243 38104ft 497kts
13-Sep-20 12:57 25.371287 -147.609603 243 38106ft 495kts
13-Sep-20 12:58 25.310250 -147.745811 243 38107ft 497kts
13-Sep-20 12:59 25.248767 -147.882577 243 38109ft 496kts
13-Sep-20 13:00 25.187329 -148.018826 243 38084ft 496kts
13-Sep-20 13:01 25.125895 -148.154668 243 38073ft 495kts
13-Sep-20 13:02 25.064438 -148.290136 243 38072ft 496kts
13-Sep-20 13:03 25.002734 -148.425752 243 38074ft 495kts
13-Sep-20 13:04 24.940809 -148.561437 243 38074ft 496kts
13-Sep-20 13:05 24.878875 -148.696751 243 38076ft 496kts
13-Sep-20 13:06 24.816702 -148.832166 243 38076ft 496kts
13-Sep-20 13:07 24.754460 -148.967348 243 38077ft 496kts
13-Sep-20 13:08 24.692162 -149.102244 242 38077ft 496kts
13-Sep-20 13:09 24.629646 -149.237214 242 38079ft 496kts
13-Sep-20 13:10 24.567160 -149.371745 242 38079ft 496kts
13-Sep-20 13:11 24.504310 -149.506631 242 38080ft 496kts
13-Sep-20 13:12 24.441536 -149.641001 242 38079ft 497kts
13-Sep-20 13:13 24.378468 -149.775582 242 38081ft 496kts
13-Sep-20 13:14 24.315246 -149.910112 242 38081ft 497kts
13-Sep-20 13:15 24.252088 -150.044132 242 38078ft 496kts
13-Sep-20 13:16 24.188771 -150.178095 242 38083ft 496kts
13-Sep-20 13:17 24.125307 -150.311996 242 38083ft 496kts
13-Sep-20 13:18 24.061685 -150.445846 242 38085ft 496kts
13-Sep-20 13:19 23.998035 -150.579384 242 38086ft 496kts
13-Sep-20 13:20 23.934210 -150.712897 242 38087ft 496kts
13-Sep-20 13:21 23.870165 -150.846521 242 38087ft 496kts
13-Sep-20 13:22 23.806185 -150.979623 242 38088ft 496kts
13-Sep-20 13:23 23.741873 -151.113041 242 38088ft 496kts
13-Sep-20 13:24 23.677685 -151.245850 242 38089ft 496kts
13-Sep-20 13:25 23.613369 -151.378547 242 38089ft 496kts
13-Sep-20 13:26 23.548737 -151.511533 241 38090ft 496kts
13-Sep-20 13:27 23.484153 -151.644071 241 38091ft 496kts
13-Sep-20 13:28 23.419488 -151.776399 241 38092ft 496kts
13-Sep-20 13:29 23.354669 -151.908686 241 38093ft 497kts
13-Sep-20 13:30 23.289804 -152.040729 241 38094ft 496kts
13-Sep-20 13:31 23.224669 -152.172947 241 38094ft 497kts
13-Sep-20 13:32 23.159599 -152.304683 241 38096ft 496kts
13-Sep-20 13:33 23.094182 -152.436800 241 38096ft 497kts
13-Sep-20 13:34 23.028938 -152.568302 241 38097ft 496kts
13-Sep-20 13:35 22.962852 -152.699848 241 38097ft 497kts
13-Sep-20 13:36 22.897076 -152.830841 241 38097ft 496kts
13-Sep-20 13:37 22.831216 -152.961893 241 38099ft 497kts
13-Sep-20 13:38 22.764847 -153.093214 241 38099ft 496kts
13-Sep-20 13:39 22.698563 -153.223759 241 38099ft 497kts
13-Sep-20 13:40 22.632210 -153.354447 241 38098ft 496kts
13-Sep-20 13:41 22.565845 -153.485101 241 38101ft 497kts
13-Sep-20 13:42 22.499094 -153.615813 241 38101ft 496kts
13-Sep-20 13:43 22.432392 -153.745982 240 38103ft 497kts
13-Sep-20 13:44 22.368951 -153.878342 251 38150ft 495kts
13-Sep-20 13:45 22.363503 -154.024846 278 38115ft 499kts
13-Sep-20 13:46 22.367825 -154.173136 269 38102ft 496kts
13-Sep-20 13:47 22.373653 -154.321713 267 38106ft 497kts
13-Sep-20 13:48 22.376617 -154.470999 272 37070ft 492kts
13-Sep-20 13:49 22.377284 -154.614788 273 35499ft 476kts
13-Sep-20 13:50 22.379458 -154.755739 270 33898ft 465kts
13-Sep-20 13:51 22.382663 -154.893200 268 31909ft 451kts
13-Sep-20 13:52 22.385314 -155.026843 270 29911ft 440kts
13-Sep-20 13:53 22.386648 -155.156409 271 27919ft 427kts
13-Sep-20 13:54 22.387827 -155.282555 271 26295ft 419kts
13-Sep-20 13:55 22.389757 -155.406546 269 24693ft 409kts
13-Sep-20 13:56 22.391620 -155.527760 270 23606ft 404kts
13-Sep-20 13:57 22.392854 -155.648122 270 22598ft 397kts
13-Sep-20 13:58 22.393924 -155.766482 270 21599ft 392kts
13-Sep-20 13:59 22.395203 -155.883034 270 20601ft 387kts
13-Sep-20 14:00 22.394401 -155.997982 256 19583ft 381kts
13-Sep-20 14:01 22.349609 -156.099733 238 18655ft 375kts
13-Sep-20 14:02 22.293818 -156.193300 236 17834ft 371kts
13-Sep-20 14:03 22.238575 -156.285958 237 17035ft 366kts
13-Sep-20 14:04 22.184558 -156.378415 237 16234ft 361kts
13-Sep-20 14:05 22.131868 -156.469634 238 15437ft 358kts
13-Sep-20 14:06 22.080018 -156.559822 238 14641ft 353kts
13-Sep-20 14:07 22.028860 -156.648949 238 14008ft 349kts
13-Sep-20 14:09 21.977869 -156.737818 238 13506ft 347kts
13-Sep-20 14:10 21.927460 -156.825629 238 13007ft 345kts
13-Sep-20 14:11 21.876049 -156.911931 232 12513ft 342kts
13-Sep-20 14:12 21.818564 -156.986427 229 11985ft 303kts
13-Sep-20 14:13 21.765292 -157.053159 229 11511ft 293kts
13-Sep-20 14:14 21.712576 -157.120010 229 10410ft 295kts
13-Sep-20 14:15 21.660253 -157.186897 229 9025ft 290kts
13-Sep-20 14:16 21.609539 -157.251957 229 7887ft 278kts
13-Sep-20 14:17 21.550246 -157.299847 208 6944ft 274kts
13-Sep-20 14:18 21.497893 -157.356503 233 5994ft 266kts
13-Sep-20 14:19 21.459911 -157.424635 244 5763ft 267kts
13-Sep-20 14:20 21.423996 -157.494021 239 5505ft 266kts
13-Sep-20 14:21 21.379646 -157.556933 226 5256ft 265kts
13-Sep-20 14:22 21.332528 -157.617689 229 5036ft 263kts
13-Sep-20 14:23 21.284980 -157.677588 230 5023ft 264kts
13-Sep-20 14:24 21.237309 -157.737555 228 5018ft 264kts
13-Sep-20 14:25 21.189476 -157.797293 229 4023ft 263kts
13-Sep-20 14:26 21.143291 -157.854629 229 3788ft 248kts
13-Sep-20 14:26 21.105985 -157.901042 229 3592ft 248kts
13-Sep-20 14:28 21.083510 -157.979222 275 3446ft 244kts
13-Sep-20 14:29 21.105862 -158.048492 296 3193ft 251kts
13-Sep-20 14:29 21.143425 -158.094575 338 3024ft 253kts
13-Sep-20 14:30 21.204257 -158.077157 41 3011ft 228kts
13-Sep-20 14:31 21.243794 -158.024979 52 2294ft 215kts
13-Sep-20 14:32 21.279536 -157.975578 53 1183ft 195kts
13-Sep-20 14:33 21.308710 -157.934514 52 185ft 165kts
13-Sep-20 14:34 21.326671 -157.909092 52 24ft 33kts
13-Sep-20 14:35 21.330411 -157.907883 286 22ft 9kts
13-Sep-20 14:36 21.328518 -157.911280 233 23ft 24kts
13-Sep-20 14:37 21.326905 -157.916915 268 24ft 19kts
13-Sep-20 14:38 21.326924 -157.923480 270 25ft 23kts
13-Sep-20 14:39 21.327461 -157.930645 300 26ft 5kts
13-Sep-20 14:40 21.328362 -157.931044 0 26ft 0kts
13-Sep-20 14:41 21.328362 -157.931044 0 26ft 0kts
13-Sep-20 14:42 21.328362 -157.931044 0 26ft 0kts
13-Sep-20 14:43 21.328362 -157.931044 0 26ft 0kts
13-Sep-20 14:44 21.328362 -157.931044 0 26ft 0kts
13-Sep-20 14:45 21.328362 -157.931044 0 26ft 0kts
13-Sep-20 14:46 21.328362 -157.931044 0 26ft 0kts
13-Sep-20 14:47 21.328362 -157.931044 0 26ft 0kts

Navigation Log

Ident Type
Flight plan parsing failed, navigation log unavailable